Flight Track Log - Related Links

Times and Time Zones

All times are in EDT time to prevent confusion due to time zone crossing. See the SWA2610 flight status page for this flight to view local times or setup timezone preferences in your user account.

Time Position Orientation Groundspeed Altitude Reporting Facility
EDT Latitude Longitude Course Direction KTS MPH feet Rate Location/Type
Fri 10:14:03 AM 33.6333 -117.8833 337° Northwest 144 166 2,100  Level Southern California TRACON
Fri 10:15:22 AM 33.5867 -117.8981 195° South 155 178 4,100 2,357 Climbing Los Angeles Center
Fri 10:16:23 AM 33.5178 -117.9367 205° Southwest 260 299 7,600 3,415 Climbing Los Angeles Center
Fri 10:17:25 AM 33.4511 -117.9917 215° Southwest 283 326 11,100 3,073 Climbing Los Angeles Center
Fri 10:18:26 AM 33.3889 -118.0406 213° Southwest 313 360 13,900 4,033 Climbing Los Angeles Center
Fri 10:19:00 AM 33.3973 -118.4320 337° Northwest  Level FlightAware Approximate
Fri 10:19:27 AM 33.3392 -118.1572 243° Southwest 348 400 19,300  Level Los Angeles Center
Fri 10:20:29 AM 33.4047 -118.2575 308° West 379 436 22,600 2,780 Climbing Los Angeles Center
Fri 10:21:30 AM 33.4783 -118.3592 311° West 396 456 25,000 2,390 Climbing Los Angeles Center
Fri 10:22:32 AM 33.5600 -118.4700 312° West 430 495 27,500 2,488 Climbing Los Angeles Center
Fri 10:23:33 AM 33.6450 -118.5847 312° West 448 516 30,100 2,311 Climbing Los Angeles Center
Fri 10:24:34 AM 33.7308 -118.7025 311° West 459 528 32,200 2,732 Climbing Los Angeles Center
Fri 10:25:36 AM 33.8342 -118.8414 312° West 460 529 35,700 2,732 Climbing Los Angeles Center
Fri 10:26:37 AM 33.9161 -118.9539 311° West 449 517 37,800 1,902 Climbing Los Angeles Center
Fri 10:27:39 AM 33.9967 -119.0636 312° West 441 507 39,600 1,073 Climbing Los Angeles Center
Fri 10:28:40 AM 34.0772 -119.1761 311° West 441 507 40,000 197 Climbing Los Angeles Center
Fri 10:29:41 AM 34.1586 -119.2872 312° West 441 507 40,000  Level Los Angeles Center
Fri 10:30:43 AM 34.2383 -119.3978 311° West 439 505 40,000  Level Los Angeles Center
Fri 10:31:44 AM 34.3192 -119.5078 312° West 438 504 40,000  Level Los Angeles Center
Fri 10:32:46 AM 34.3975 -119.6186 311° West 435 501 40,000  Level Los Angeles Center
Fri 10:33:59 AM 34.4772 -119.7286 311° West 435 501 40,000  Level Los Angeles Center
Fri 10:35:01 AM 34.6042 -119.8511 322° Northwest 432 497 40,000  Level Los Angeles Center
Fri 10:36:02 AM 34.7069 -119.9350 326° Northwest 443 510 40,000  Level Los Angeles Center
Fri 10:37:04 AM 34.8089 -120.0169 327° Northwest 440 506 40,000  Level Los Angeles Center
Fri 10:38:05 AM 34.9097 -120.1022 325° Northwest 440 506 40,000  Level Los Angeles Center
Fri 10:39:06 AM 35.0067 -120.1792 327° Northwest 439 505 40,000  Level Los Angeles Center
Fri 10:40:08 AM 35.1250 -120.2808 325° Northwest 436 502 40,000  Level Los Angeles Center
Fri 10:41:09 AM 35.2239 -120.3644 325° Northwest 436 502 40,000  Level Los Angeles Center
Fri 10:42:22 AM 35.3242 -120.4503 325° Northwest 453 521 40,000 -133 Level Los Angeles Center
Fri 10:43:24 AM 35.4439 -120.5539 325° Northwest 446 513 39,700 -585 Descending Los Angeles Center
Fri 10:44:25 AM 35.5461 -120.6389 326° Northwest 447 514 38,800 -976 Descending Los Angeles Center
Fri 10:45:27 AM 35.6636 -120.7375 326° Northwest 443 510 37,700 -1,024 Descending Los Angeles Center
Fri 10:46:28 AM 35.7661 -120.8261 325° Northwest 448 516 36,700 -934 Descending Los Angeles Center
Fri 10:47:29 AM 35.8703 -120.9136 326° Northwest 452 520 35,800 -1,756 Descending Los Angeles Center
Fri 10:48:31 AM 35.9739 -121.0022 325° Northwest 452 520 33,100 -2,931 Descending Los Angeles Center
Fri 10:49:40 AM 36.0972 -121.1119 324° Northwest 458 527 29,400 -2,954 Descending Oakland Center
Fri 10:50:41 AM 36.1975 -121.1983 325° Northwest 447 514 26,700 -2,557 Descending Oakland Center
Fri 10:51:42 AM 36.2947 -121.2828 325° Northwest 433 498 24,200 -2,459 Descending Oakland Center
Fri 10:52:43 AM 36.3872 -121.3631 325° Northwest 414 476 21,700 -1,967 Descending Oakland Center
Fri 10:53:44 AM 36.4761 -121.4411 325° Northwest 398 458 20,200 -1,967 Descending Oakland Center
Fri 10:54:45 AM 36.5800 -121.4797 343° North 397 457 17,700 -2,557 Descending Oakland Center
Fri 10:55:46 AM 36.6836 -121.4986 352° North 386 444 15,000 -2,656 Descending Oakland Center
Fri 10:56:47 AM 36.7825 -121.5161 352° North 368 423 12,300 -2,311 Descending Oakland Center
Fri 10:57:48 AM 36.8792 -121.5342 352° North 351 404 10,300 -1,623 Descending Oakland Center
Fri 10:58:49 AM 36.9558 -121.5769 336° Northwest 316 364 9,000 -1,672 Descending Oakland Center
Fri 10:59:50 AM 37.0244 -121.6219 332° Northwest 284 327 6,900 -1,623 Descending Oakland Center
Fri 11:00:51 AM 37.0922 -121.6669 332° Northwest 271 312 5,700 -1,000 Descending Oakland Center
Fri 11:01:26 AM 37.1333 -121.7000 327° Northwest 232 267 5,300 -742 Descending Northern Cal TRACON
Fri 11:02:20 AM 37.1833 -121.7333 332° Northwest 211 243 4,600 -897 Descending Northern Cal TRACON
Fri 11:02:53 AM 37.2019 -121.7542 318° Northwest 209 241 4,000 -1,032 Descending Oakland Center
Fri 11:03:53 AM 37.2408 -121.7992 317° Northwest 199 229 3,000 -942 Descending Oakland Center
Fri 11:04:54 AM 37.2731 -121.8361 318° Northwest 178 205 2,100 -787 Descending Oakland Center
Fri 11:05:55 AM 37.3017 -121.8653 321° Northwest 152 175 1,400 -689 Descending Oakland Center
Fri 11:06:56 AM 37.3283 -121.8944 319° Northwest 138 159 700 9,148 Descending Oakland Center
Fri 11:07:57 AM 37.3547 -121.9228 320° Northwest 130 150 20,000 18,984 Climbing Oakland Center
Fri 11:09:00 AM 37.3500 -121.9167 North  Level FlightAware Approximate
Fri 11:16:00 AM 37.3627 -121.9291 North  Level Estimated

Login

Don't have an account? Register now (free) for customized features, flight alerts, and more!